sensor_id;sensor_type;location;lat;lon;timestamp;temperature;humidity
14057;DHT22;7103;54.300;10.180;2022-09-12T00:01:52;12.10;99.90
14057;DHT22;7103;54.300;10.180;2022-09-12T00:04:19;12.00;99.90
14057;DHT22;7103;54.300;10.180;2022-09-12T00:06:46;12.00;99.90
14057;DHT22;7103;54.300;10.180;2022-09-12T00:09:14;11.80;99.90
14057;DHT22;7103;54.300;10.180;2022-09-12T00:11:44;11.80;99.90
14057;DHT22;7103;54.300;10.180;2022-09-12T00:14:14;11.80;99.90
14057;DHT22;7103;54.300;10.180;2022-09-12T00:16:42;11.80;99.90
14057;DHT22;7103;54.300;10.180;2022-09-12T00:19:10;11.70;99.90
14057;DHT22;7103;54.300;10.180;2022-09-12T00:21:38;11.70;99.90
14057;DHT22;7103;54.300;10.180;2022-09-12T00:24:05;11.70;99.90
14057;DHT22;7103;54.300;10.180;2022-09-12T00:26:33;11.70;99.90
14057;DHT22;7103;54.300;10.180;2022-09-12T00:29:00;11.80;99.90
14057;DHT22;7103;54.300;10.180;2022-09-12T00:31:27;11.80;99.90
14057;DHT22;7103;54.300;10.180;2022-09-12T00:33:56;11.80;99.90
14057;DHT22;7103;54.300;10.180;2022-09-12T00:36:24;11.80;99.90
14057;DHT22;7103;54.300;10.180;2022-09-12T00:38:52;11.80;99.90
14057;DHT22;7103;54.300;10.180;2022-09-12T00:41:26;11.80;99.90
14057;DHT22;7103;54.300;10.180;2022-09-12T00:43:58;11.90;99.90
14057;DHT22;7103;54.300;10.180;2022-09-12T00:49:07;11.80;99.90
14057;DHT22;7103;54.300;10.180;2022-09-12T00:51:36;11.70;99.90
14057;DHT22;7103;54.300;10.180;2022-09-12T00:54:12;11.70;99.90
14057;DHT22;7103;54.300;10.180;2022-09-12T00:56:42;11.70;99.90
14057;DHT22;7103;54.300;10.180;2022-09-12T00:59:31;11.70;99.90
14057;DHT22;7103;54.300;10.180;2022-09-12T01:01:59;11.60;99.90
14057;DHT22;7103;54.300;10.180;2022-09-12T01:04:27;11.60;99.90
14057;DHT22;7103;54.300;10.180;2022-09-12T01:06:56;11.60;99.90
14057;DHT22;7103;54.300;10.180;2022-09-12T01:09:24;11.60;99.90
14057;DHT22;7103;54.300;10.180;2022-09-12T01:11:57;11.60;99.90
14057;DHT22;7103;54.300;10.180;2022-09-12T01:14:24;11.70;99.90
14057;DHT22;7103;54.300;10.180;2022-09-12T01:16:52;11.60;99.90
14057;DHT22;7103;54.300;10.180;2022-09-12T01:20:00;11.70;99.90
14057;DHT22;7103;54.300;10.180;2022-09-12T01:31:21;11.60;99.90
14057;DHT22;7103;54.300;10.180;2022-09-12T01:39:19;11.40;99.90
14057;DHT22;7103;54.300;10.180;2022-09-12T01:41:59;11.30;99.90
14057;DHT22;7103;54.300;10.180;2022-09-12T01:44:46;11.30;99.90
14057;DHT22;7103;54.300;10.180;2022-09-12T01:47:32;11.30;99.90
14057;DHT22;7103;54.300;10.180;2022-09-12T01:50:29;11.20;99.90
14057;DHT22;7103;54.300;10.180;2022-09-12T01:53:07;11.20;99.90
14057;DHT22;7103;54.300;10.180;2022-09-12T01:55:42;11.30;99.90
14057;DHT22;7103;54.300;10.180;2022-09-12T01:58:19;11.30;99.90
14057;DHT22;7103;54.300;10.180;2022-09-12T02:01:05;11.30;99.90
14057;DHT22;7103;54.300;10.180;2022-09-12T02:03:40;11.30;99.90
14057;DHT22;7103;54.300;10.180;2022-09-12T02:06:18;11.30;99.90
14057;DHT22;7103;54.300;10.180;2022-09-12T02:08:50;11.30;99.90
14057;DHT22;7103;54.300;10.180;2022-09-12T02:11:18;11.30;99.90
14057;DHT22;7103;54.300;10.180;2022-09-12T02:14:00;11.20;99.90
14057;DHT22;7103;54.300;10.180;2022-09-12T02:16:36;11.10;99.90
14057;DHT22;7103;54.300;10.180;2022-09-12T02:19:15;11.10;99.90
14057;DHT22;7103;54.300;10.180;2022-09-12T02:21:48;11.20;99.90
14057;DHT22;7103;54.300;10.180;2022-09-12T02:24:16;11.20;99.90
14057;DHT22;7103;54.300;10.180;2022-09-12T02:26:51;11.20;99.90
14057;DHT22;7103;54.300;10.180;2022-09-12T02:29:20;11.20;99.90
14057;DHT22;7103;54.300;10.180;2022-09-12T02:31:59;11.20;99.90
14057;DHT22;7103;54.300;10.180;2022-09-12T02:34:31;11.10;99.90
14057;DHT22;7103;54.300;10.180;2022-09-12T02:37:15;11.10;99.90
14057;DHT22;7103;54.300;10.180;2022-09-12T02:39:44;11.10;99.90
14057;DHT22;7103;54.300;10.180;2022-09-12T02:42:12;11.10;99.90
14057;DHT22;7103;54.300;10.180;2022-09-12T02:44:39;11.20;99.90
14057;DHT22;7103;54.300;10.180;2022-09-12T02:49:59;11.00;99.90
14057;DHT22;7103;54.300;10.180;2022-09-12T02:52:27;11.00;99.90
14057;DHT22;7103;54.300;10.180;2022-09-12T02:54:54;11.00;99.90
14057;DHT22;7103;54.300;10.180;2022-09-12T02:57:23;11.10;99.90
14057;DHT22;7103;54.300;10.180;2022-09-12T02:59:56;11.00;99.90
14057;DHT22;7103;54.300;10.180;2022-09-12T03:03:31;11.10;99.90
14057;DHT22;7103;54.300;10.180;2022-09-12T03:05:55;11.10;99.90
14057;DHT22;7103;54.300;10.180;2022-09-12T03:11:24;11.10;99.90
14057;DHT22;7103;54.300;10.180;2022-09-12T03:17:45;11.10;99.90
14057;DHT22;7103;54.300;10.180;2022-09-12T03:20:05;11.10;99.90
14057;DHT22;7103;54.300;10.180;2022-09-12T03:25:53;11.10;99.90
14057;DHT22;7103;54.300;10.180;2022-09-12T03:28:22;11.10;99.90
14057;DHT22;7103;54.300;10.180;2022-09-12T03:30:50;11.10;99.90
14057;DHT22;7103;54.300;10.180;2022-09-12T03:33:23;11.00;99.90
14057;DHT22;7103;54.300;10.180;2022-09-12T03:35:51;11.10;99.90
14057;DHT22;7103;54.300;10.180;2022-09-12T03:38:19;11.00;99.90
14057;DHT22;7103;54.300;10.180;2022-09-12T03:40:45;11.00;99.90
14057;DHT22;7103;54.300;10.180;2022-09-12T03:43:19;11.00;99.90
14057;DHT22;7103;54.300;10.180;2022-09-12T03:45:49;10.90;99.90
14057;DHT22;7103;54.300;10.180;2022-09-12T03:48:17;10.90;99.90
14057;DHT22;7103;54.300;10.180;2022-09-12T03:50:44;10.90;99.90
14057;DHT22;7103;54.300;10.180;2022-09-12T03:53:11;10.90;99.90
14057;DHT22;7103;54.300;10.180;2022-09-12T03:55:43;10.90;99.90
14057;DHT22;7103;54.300;10.180;2022-09-12T03:58:09;10.90;99.90
14057;DHT22;7103;54.300;10.180;2022-09-12T04:00:38;10.90;99.90
14057;DHT22;7103;54.300;10.180;2022-09-12T04:03:05;10.90;99.90
14057;DHT22;7103;54.300;10.180;2022-09-12T04:05:31;10.80;99.90
14057;DHT22;7103;54.300;10.180;2022-09-12T04:07:58;10.80;99.90
14057;DHT22;7103;54.300;10.180;2022-09-12T04:10:25;10.80;99.90
14057;DHT22;7103;54.300;10.180;2022-09-12T04:12:52;10.70;99.90
14057;DHT22;7103;54.300;10.180;2022-09-12T04:15:19;10.70;99.90
14057;DHT22;7103;54.300;10.180;2022-09-12T04:17:46;10.60;99.90
14057;DHT22;7103;54.300;10.180;2022-09-12T04:20:12;10.60;99.90
14057;DHT22;7103;54.300;10.180;2022-09-12T04:22:39;10.60;99.90
14057;DHT22;7103;54.300;10.180;2022-09-12T04:25:06;10.70;99.90
14057;DHT22;7103;54.300;10.180;2022-09-12T04:27:35;10.80;99.90
14057;DHT22;7103;54.300;10.180;2022-09-12T04:30:02;10.90;99.90
14057;DHT22;7103;54.300;10.180;2022-09-12T04:32:30;10.90;99.90
14057;DHT22;7103;54.300;10.180;2022-09-12T04:34:57;10.90;99.90
14057;DHT22;7103;54.300;10.180;2022-09-12T04:37:24;10.70;99.90
14057;DHT22;7103;54.300;10.180;2022-09-12T04:39:51;10.80;99.90
14057;DHT22;7103;54.300;10.180;2022-09-12T04:42:23;10.90;99.90
14057;DHT22;7103;54.300;10.180;2022-09-12T04:44:50;11.00;99.90
14057;DHT22;7103;54.300;10.180;2022-09-12T04:47:17;11.00;99.90
14057;DHT22;7103;54.300;10.180;2022-09-12T04:49:44;11.00;1.00
14057;DHT22;7103;54.300;10.180;2022-09-12T04:52:11;11.00;1.00
14057;DHT22;7103;54.300;10.180;2022-09-12T04:54:38;11.00;1.00
14057;DHT22;7103;54.300;10.180;2022-09-12T04:57:05;11.10;1.00
14057;DHT22;7103;54.300;10.180;2022-09-12T04:59:32;11.20;1.00
14057;DHT22;7103;54.300;10.180;2022-09-12T05:01:59;11.00;1.00
14057;DHT22;7103;54.300;10.180;2022-09-12T05:04:27;11.00;1.00
14057;DHT22;7103;54.300;10.180;2022-09-12T05:06:54;11.10;1.00
14057;DHT22;7103;54.300;10.180;2022-09-12T05:09:21;11.10;1.00
14057;DHT22;7103;54.300;10.180;2022-09-12T05:11:49;11.00;1.00
14057;DHT22;7103;54.300;10.180;2022-09-12T05:14:32;11.00;1.00
14057;DHT22;7103;54.300;10.180;2022-09-12T05:17:00;11.00;1.00
14057;DHT22;7103;54.300;10.180;2022-09-12T05:19:29;10.90;1.00
14057;DHT22;7103;54.300;10.180;2022-09-12T05:21:56;10.90;1.00
14057;DHT22;7103;54.300;10.180;2022-09-12T05:24:23;10.90;1.00
14057;DHT22;7103;54.300;10.180;2022-09-12T05:26:50;11.00;1.00
14057;DHT22;7103;54.300;10.180;2022-09-12T05:29:17;11.10;1.00
14057;DHT22;7103;54.300;10.180;2022-09-12T05:31:44;11.10;1.00
14057;DHT22;7103;54.300;10.180;2022-09-12T05:34:11;11.20;1.00
14057;DHT22;7103;54.300;10.180;2022-09-12T05:36:38;11.20;1.00
14057;DHT22;7103;54.300;10.180;2022-09-12T05:39:05;11.30;1.00
14057;DHT22;7103;54.300;10.180;2022-09-12T05:41:33;11.40;1.00
14057;DHT22;7103;54.300;10.180;2022-09-12T05:44:02;11.40;1.00
14057;DHT22;7103;54.300;10.180;2022-09-12T05:46:34;11.30;1.00
14057;DHT22;7103;54.300;10.180;2022-09-12T05:49:03;11.40;1.00
14057;DHT22;7103;54.300;10.180;2022-09-12T05:51:36;11.50;99.90
14057;DHT22;7103;54.300;10.180;2022-09-12T05:54:08;11.50;99.90
14057;DHT22;7103;54.300;10.180;2022-09-12T05:56:40;11.60;99.90
14057;DHT22;7103;54.300;10.180;2022-09-12T05:59:16;11.70;99.90
14057;DHT22;7103;54.300;10.180;2022-09-12T06:01:44;11.80;99.90
14057;DHT22;7103;54.300;10.180;2022-09-12T06:04:11;11.90;99.90
14057;DHT22;7103;54.300;10.180;2022-09-12T06:06:41;11.80;99.90
14057;DHT22;7103;54.300;10.180;2022-09-12T06:09:12;11.90;99.90
14057;DHT22;7103;54.300;10.180;2022-09-12T06:11:39;11.90;99.90
14057;DHT22;7103;54.300;10.180;2022-09-12T06:14:08;12.00;99.90
14057;DHT22;7103;54.300;10.180;2022-09-12T06:16:36;12.00;99.90
14057;DHT22;7103;54.300;10.180;2022-09-12T06:19:06;12.00;99.90
14057;DHT22;7103;54.300;10.180;2022-09-12T06:21:33;12.10;99.90
14057;DHT22;7103;54.300;10.180;2022-09-12T06:24:05;12.40;99.90
14057;DHT22;7103;54.300;10.180;2022-09-12T06:26:33;12.60;99.90
14057;DHT22;7103;54.300;10.180;2022-09-12T06:29:00;12.60;99.90
14057;DHT22;7103;54.300;10.180;2022-09-12T06:31:33;12.70;99.90
14057;DHT22;7103;54.300;10.180;2022-09-12T06:34:02;12.80;99.90
14057;DHT22;7103;54.300;10.180;2022-09-12T06:36:32;12.80;99.90
14057;DHT22;7103;54.300;10.180;2022-09-12T06:39:01;12.80;99.90
14057;DHT22;7103;54.300;10.180;2022-09-12T06:41:29;12.80;99.90
14057;DHT22;7103;54.300;10.180;2022-09-12T06:43:58;12.90;99.90
14057;DHT22;7103;54.300;10.180;2022-09-12T06:46:25;13.00;99.90
14057;DHT22;7103;54.300;10.180;2022-09-12T06:48:54;13.10;99.90
14057;DHT22;7103;54.300;10.180;2022-09-12T06:51:21;13.30;99.90
14057;DHT22;7103;54.300;10.180;2022-09-12T06:53:48;13.30;99.90
14057;DHT22;7103;54.300;10.180;2022-09-12T06:56:18;13.50;99.90
14057;DHT22;7103;54.300;10.180;2022-09-12T06:58:45;13.80;99.90
14057;DHT22;7103;54.300;10.180;2022-09-12T07:01:27;13.80;99.90
14057;DHT22;7103;54.300;10.180;2022-09-12T07:03:57;14.00;99.90
14057;DHT22;7103;54.300;10.180;2022-09-12T07:06:27;14.20;99.90
14057;DHT22;7103;54.300;10.180;2022-09-12T07:08:58;14.70;99.90
14057;DHT22;7103;54.300;10.180;2022-09-12T07:11:28;15.50;99.90
14057;DHT22;7103;54.300;10.180;2022-09-12T07:13:58;16.30;99.90
14057;DHT22;7103;54.300;10.180;2022-09-12T07:16:25;16.90;18.10
14057;DHT22;7103;54.300;10.180;2022-09-12T07:19:02;17.40;1.00
14057;DHT22;7103;54.300;10.180;2022-09-12T07:21:29;17.60;1.00
14057;DHT22;7103;54.300;10.180;2022-09-12T07:23:56;17.80;1.00
14057;DHT22;7103;54.300;10.180;2022-09-12T07:26:28;17.90;1.00
14057;DHT22;7103;54.300;10.180;2022-09-12T07:28:56;18.10;1.00
14057;DHT22;7103;54.300;10.180;2022-09-12T07:31:44;18.50;1.00
14057;DHT22;7103;54.300;10.180;2022-09-12T07:34:10;18.70;1.00
14057;DHT22;7103;54.300;10.180;2022-09-12T07:36:37;19.20;1.00
14057;DHT22;7103;54.300;10.180;2022-09-12T07:39:05;19.50;1.00
14057;DHT22;7103;54.300;10.180;2022-09-12T07:41:32;19.90;1.00
14057;DHT22;7103;54.300;10.180;2022-09-12T07:44:02;20.20;1.00
14057;DHT22;7103;54.300;10.180;2022-09-12T07:46:30;20.70;1.00
14057;DHT22;7103;54.300;10.180;2022-09-12T07:48:58;20.80;1.00
14057;DHT22;7103;54.300;10.180;2022-09-12T07:51:27;21.00;1.00
14057;DHT22;7103;54.300;10.180;2022-09-12T07:53:55;21.10;1.00
14057;DHT22;7103;54.300;10.180;2022-09-12T07:56:24;21.10;1.00
14057;DHT22;7103;54.300;10.180;2022-09-12T07:58:56;21.20;1.00
14057;DHT22;7103;54.300;10.180;2022-09-12T08:01:23;21.40;1.00
14057;DHT22;7103;54.300;10.180;2022-09-12T08:03:56;21.80;1.00
14057;DHT22;7103;54.300;10.180;2022-09-12T08:06:25;21.90;1.00
14057;DHT22;7103;54.300;10.180;2022-09-12T08:08:55;22.00;1.00
14057;DHT22;7103;54.300;10.180;2022-09-12T08:11:23;22.00;1.00
14057;DHT22;7103;54.300;10.180;2022-09-12T08:13:51;22.10;1.00
14057;DHT22;7103;54.300;10.180;2022-09-12T08:16:26;22.00;1.00
14057;DHT22;7103;54.300;10.180;2022-09-12T08:18:53;22.00;1.00
14057;DHT22;7103;54.300;10.180;2022-09-12T08:21:23;21.90;1.00
14057;DHT22;7103;54.300;10.180;2022-09-12T08:23:58;21.90;1.00
14057;DHT22;7103;54.300;10.180;2022-09-12T08:26:26;22.10;1.00
14057;DHT22;7103;54.300;10.180;2022-09-12T08:28:53;22.10;1.00
14057;DHT22;7103;54.300;10.180;2022-09-12T08:31:22;22.00;1.00
14057;DHT22;7103;54.300;10.180;2022-09-12T08:33:50;21.80;1.00
14057;DHT22;7103;54.300;10.180;2022-09-12T08:36:19;21.80;1.00
14057;DHT22;7103;54.300;10.180;2022-09-12T08:38:49;21.70;1.00
14057;DHT22;7103;54.300;10.180;2022-09-12T08:44:05;21.80;1.00
14057;DHT22;7103;54.300;10.180;2022-09-12T08:46:37;22.30;1.00
14057;DHT22;7103;54.300;10.180;2022-09-12T08:49:11;22.50;1.00
14057;DHT22;7103;54.300;10.180;2022-09-12T08:51:39;22.40;1.00
14057;DHT22;7103;54.300;10.180;2022-09-12T08:54:19;22.20;1.00
14057;DHT22;7103;54.300;10.180;2022-09-12T08:56:47;22.00;1.00
14057;DHT22;7103;54.300;10.180;2022-09-12T08:59:14;22.20;1.00
14057;DHT22;7103;54.300;10.180;2022-09-12T09:01:43;22.40;1.00
14057;DHT22;7103;54.300;10.180;2022-09-12T09:10:07;22.10;1.00
14057;DHT22;7103;54.300;10.180;2022-09-12T09:16:08;22.80;1.00
14057;DHT22;7103;54.300;10.180;2022-09-12T09:18:33;22.70;1.00
14057;DHT22;7103;54.300;10.180;2022-09-12T09:21:40;22.70;1.00
14057;DHT22;7103;54.300;10.180;2022-09-12T09:24:14;22.60;1.00
14057;DHT22;7103;54.300;10.180;2022-09-12T09:27:19;22.60;1.00
14057;DHT22;7103;54.300;10.180;2022-09-12T09:29:56;22.50;1.00
14057;DHT22;7103;54.300;10.180;2022-09-12T09:32:34;22.40;1.00
14057;DHT22;7103;54.300;10.180;2022-09-12T09:35:23;22.60;1.00
14057;DHT22;7103;54.300;10.180;2022-09-12T09:38:02;22.70;1.00
14057;DHT22;7103;54.300;10.180;2022-09-12T09:45:38;22.70;1.00
14057;DHT22;7103;54.300;10.180;2022-09-12T09:50:58;22.10;1.00
14057;DHT22;7103;54.300;10.180;2022-09-12T09:53:32;22.40;1.00
14057;DHT22;7103;54.300;10.180;2022-09-12T09:56:04;22.60;1.00
14057;DHT22;7103;54.300;10.180;2022-09-12T09:58:34;22.70;1.00
14057;DHT22;7103;54.300;10.180;2022-09-12T10:01:05;22.60;1.00
14057;DHT22;7103;54.300;10.180;2022-09-12T10:03:38;22.60;1.00
14057;DHT22;7103;54.300;10.180;2022-09-12T10:06:29;22.50;1.00
14057;DHT22;7103;54.300;10.180;2022-09-12T10:09:05;22.50;1.00
14057;DHT22;7103;54.300;10.180;2022-09-12T10:11:32;22.50;1.00
14057;DHT22;7103;54.300;10.180;2022-09-12T10:13:59;22.60;1.00
14057;DHT22;7103;54.300;10.180;2022-09-12T10:16:29;22.50;1.00
14057;DHT22;7103;54.300;10.180;2022-09-12T10:19:01;22.60;1.00
14057;DHT22;7103;54.300;10.180;2022-09-12T10:21:44;22.30;1.00
14057;DHT22;7103;54.300;10.180;2022-09-12T10:29:39;22.20;1.00
14057;DHT22;7103;54.300;10.180;2022-09-12T10:32:12;22.20;1.00
14057;DHT22;7103;54.300;10.180;2022-09-12T10:34:43;22.40;1.00
14057;DHT22;7103;54.300;10.180;2022-09-12T10:37:18;22.30;1.00
14057;DHT22;7103;54.300;10.180;2022-09-12T10:39:52;22.20;1.00
14057;DHT22;7103;54.300;10.180;2022-09-12T10:42:49;22.00;1.00
14057;DHT22;7103;54.300;10.180;2022-09-12T10:45:26;21.90;1.00
14057;DHT22;7103;54.300;10.180;2022-09-12T10:47:59;22.00;1.00
14057;DHT22;7103;54.300;10.180;2022-09-12T10:50:39;22.00;1.00
14057;DHT22;7103;54.300;10.180;2022-09-12T10:53:24;22.10;1.00
14057;DHT22;7103;54.300;10.180;2022-09-12T10:56:09;21.90;1.00
14057;DHT22;7103;54.300;10.180;2022-09-12T10:58:58;21.70;1.00
14057;DHT22;7103;54.300;10.180;2022-09-12T11:07:08;21.60;1.00
14057;DHT22;7103;54.300;10.180;2022-09-12T11:12:57;21.90;1.00
14057;DHT22;7103;54.300;10.180;2022-09-12T11:34:09;22.30;1.00
14057;DHT22;7103;54.300;10.180;2022-09-12T11:39:26;22.20;1.00
14057;DHT22;7103;54.300;10.180;2022-09-12T11:42:00;22.10;1.00
14057;DHT22;7103;54.300;10.180;2022-09-12T11:44:44;21.90;1.00
14057;DHT22;7103;54.300;10.180;2022-09-12T11:47:13;21.90;1.00
14057;DHT22;7103;54.300;10.180;2022-09-12T11:49:49;21.80;1.00
14057;DHT22;7103;54.300;10.180;2022-09-12T11:52:24;21.70;1.00
14057;DHT22;7103;54.300;10.180;2022-09-12T11:55:16;21.80;1.00
14057;DHT22;7103;54.300;10.180;2022-09-12T11:57:57;21.80;1.00
14057;DHT22;7103;54.300;10.180;2022-09-12T12:00:36;21.60;1.00
14057;DHT22;7103;54.300;10.180;2022-09-12T12:03:44;21.50;1.00
14057;DHT22;7103;54.300;10.180;2022-09-12T12:06:21;21.60;1.00
14057;DHT22;7103;54.300;10.180;2022-09-12T12:08:52;21.80;1.00
14057;DHT22;7103;54.300;10.180;2022-09-12T12:11:42;22.00;1.00
14057;DHT22;7103;54.300;10.180;2022-09-12T12:16:41;22.00;1.00
14057;DHT22;7103;54.300;10.180;2022-09-12T12:21:51;21.70;1.00
14057;DHT22;7103;54.300;10.180;2022-09-12T12:34:35;21.80;1.00
14057;DHT22;7103;54.300;10.180;2022-09-12T12:47:32;22.30;1.00
14057;DHT22;7103;54.300;10.180;2022-09-12T12:50:12;22.20;1.00
14057;DHT22;7103;54.300;10.180;2022-09-12T12:57:55;22.00;1.00
14057;DHT22;7103;54.300;10.180;2022-09-12T13:03:00;22.40;1.00
14057;DHT22;7103;54.300;10.180;2022-09-12T13:05:29;22.50;1.00
14057;DHT22;7103;54.300;10.180;2022-09-12T13:08:22;22.70;1.00
14057;DHT22;7103;54.300;10.180;2022-09-12T13:11:15;22.70;1.00
14057;DHT22;7103;54.300;10.180;2022-09-12T13:13:51;22.70;1.00
14057;DHT22;7103;54.300;10.180;2022-09-12T13:16:31;22.90;1.00
14057;DHT22;7103;54.300;10.180;2022-09-12T13:19:14;23.10;1.00
14057;DHT22;7103;54.300;10.180;2022-09-12T13:21:55;23.30;1.00
14057;DHT22;7103;54.300;10.180;2022-09-12T13:24:22;23.30;1.00
14057;DHT22;7103;54.300;10.180;2022-09-12T13:26:50;22.80;1.00
14057;DHT22;7103;54.300;10.180;2022-09-12T13:29:21;22.70;1.00
14057;DHT22;7103;54.300;10.180;2022-09-12T13:32:00;22.70;1.00
14057;DHT22;7103;54.300;10.180;2022-09-12T13:34:35;22.70;1.00
14057;DHT22;7103;54.300;10.180;2022-09-12T13:42:37;22.50;1.00
14057;DHT22;7103;54.300;10.180;2022-09-12T13:47:58;22.80;1.00
14057;DHT22;7103;54.300;10.180;2022-09-12T13:50:30;22.80;1.00
14057;DHT22;7103;54.300;10.180;2022-09-12T13:53:00;23.00;1.00
14057;DHT22;7103;54.300;10.180;2022-09-12T13:55:32;23.00;1.00
14057;DHT22;7103;54.300;10.180;2022-09-12T13:58:18;23.00;1.00
14057;DHT22;7103;54.300;10.180;2022-09-12T14:00:45;22.90;1.00
14057;DHT22;7103;54.300;10.180;2022-09-12T14:03:29;22.80;1.00
14057;DHT22;7103;54.300;10.180;2022-09-12T14:06:15;22.70;1.00
14057;DHT22;7103;54.300;10.180;2022-09-12T14:08:47;22.60;1.00
14057;DHT22;7103;54.300;10.180;2022-09-12T14:11:26;22.60;1.00
14057;DHT22;7103;54.300;10.180;2022-09-12T14:13:53;22.50;1.00
14057;DHT22;7103;54.300;10.180;2022-09-12T14:16:24;22.50;1.00
14057;DHT22;7103;54.300;10.180;2022-09-12T14:18:54;22.60;1.00
14057;DHT22;7103;54.300;10.180;2022-09-12T14:23:56;22.60;1.00
14057;DHT22;7103;54.300;10.180;2022-09-12T14:26:23;22.60;1.00
14057;DHT22;7103;54.300;10.180;2022-09-12T14:28:53;22.70;1.00
14057;DHT22;7103;54.300;10.180;2022-09-12T14:31:34;22.80;1.00
14057;DHT22;7103;54.300;10.180;2022-09-12T14:36:44;22.90;1.00
14057;DHT22;7103;54.300;10.180;2022-09-12T14:39:25;22.80;1.00
14057;DHT22;7103;54.300;10.180;2022-09-12T14:42:12;22.60;1.00
14057;DHT22;7103;54.300;10.180;2022-09-12T14:44:52;22.60;1.00
14057;DHT22;7103;54.300;10.180;2022-09-12T14:47:24;22.50;1.00
14057;DHT22;7103;54.300;10.180;2022-09-12T14:49:54;22.60;1.00
14057;DHT22;7103;54.300;10.180;2022-09-12T14:52:33;22.70;1.00
14057;DHT22;7103;54.300;10.180;2022-09-12T14:55:26;22.60;1.00
14057;DHT22;7103;54.300;10.180;2022-09-12T14:58:26;22.30;1.00
14057;DHT22;7103;54.300;10.180;2022-09-12T15:03:37;22.10;1.00
14057;DHT22;7103;54.300;10.180;2022-09-12T15:08:54;21.90;1.00
14057;DHT22;7103;54.300;10.180;2022-09-12T15:11:22;22.00;1.00
14057;DHT22;7103;54.300;10.180;2022-09-12T15:13:49;21.90;1.00
14057;DHT22;7103;54.300;10.180;2022-09-12T15:16:16;21.90;1.00
14057;DHT22;7103;54.300;10.180;2022-09-12T15:18:43;21.90;1.00
14057;DHT22;7103;54.300;10.180;2022-09-12T15:21:17;21.90;1.00
14057;DHT22;7103;54.300;10.180;2022-09-12T15:23:51;21.80;1.00
14057;DHT22;7103;54.300;10.180;2022-09-12T15:26:24;21.80;1.00
14057;DHT22;7103;54.300;10.180;2022-09-12T15:28:52;21.80;1.00
14057;DHT22;7103;54.300;10.180;2022-09-12T15:31:24;21.80;1.00
14057;DHT22;7103;54.300;10.180;2022-09-12T15:33:52;21.80;1.00
14057;DHT22;7103;54.300;10.180;2022-09-12T15:36:21;21.70;1.00
14057;DHT22;7103;54.300;10.180;2022-09-12T15:38:49;21.70;1.00
14057;DHT22;7103;54.300;10.180;2022-09-12T15:41:18;21.70;1.00
14057;DHT22;7103;54.300;10.180;2022-09-12T15:43:47;21.80;1.00
14057;DHT22;7103;54.300;10.180;2022-09-12T15:46:15;21.70;1.00
14057;DHT22;7103;54.300;10.180;2022-09-12T15:48:42;21.60;1.00
14057;DHT22;7103;54.300;10.180;2022-09-12T15:51:15;21.60;1.00
14057;DHT22;7103;54.300;10.180;2022-09-12T15:53:43;21.40;1.00
14057;DHT22;7103;54.300;10.180;2022-09-12T15:56:10;21.40;1.00
14057;DHT22;7103;54.300;10.180;2022-09-12T15:58:37;21.40;1.00
14057;DHT22;7103;54.300;10.180;2022-09-12T16:01:23;21.40;1.00
14057;DHT22;7103;54.300;10.180;2022-09-12T16:03:50;21.30;1.00
14057;DHT22;7103;54.300;10.180;2022-09-12T16:06:17;21.30;1.00
14057;DHT22;7103;54.300;10.180;2022-09-12T16:08:44;21.20;1.00
14057;DHT22;7103;54.300;10.180;2022-09-12T16:13:48;21.00;1.00
14057;DHT22;7103;54.300;10.180;2022-09-12T16:16:15;21.00;1.00
14057;DHT22;7103;54.300;10.180;2022-09-12T16:18:42;21.00;1.00
14057;DHT22;7103;54.300;10.180;2022-09-12T16:21:09;20.80;1.00
14057;DHT22;7103;54.300;10.180;2022-09-12T16:23:45;20.80;1.00
14057;DHT22;7103;54.300;10.180;2022-09-12T16:26:12;20.70;1.00
14057;DHT22;7103;54.300;10.180;2022-09-12T16:28:39;20.70;1.00
14057;DHT22;7103;54.300;10.180;2022-09-12T16:31:11;20.60;1.00
14057;DHT22;7103;54.300;10.180;2022-09-12T16:33:39;20.60;1.00
14057;DHT22;7103;54.300;10.180;2022-09-12T16:36:08;20.60;1.00
14057;DHT22;7103;54.300;10.180;2022-09-12T16:39:02;20.40;1.00
14057;DHT22;7103;54.300;10.180;2022-09-12T16:41:28;20.40;1.00
14057;DHT22;7103;54.300;10.180;2022-09-12T16:43:55;20.40;1.00
14057;DHT22;7103;54.300;10.180;2022-09-12T16:46:24;20.30;1.00
14057;DHT22;7103;54.300;10.180;2022-09-12T16:48:56;20.30;1.00
14057;DHT22;7103;54.300;10.180;2022-09-12T16:51:26;20.30;1.00
14057;DHT22;7103;54.300;10.180;2022-09-12T16:53:54;20.20;1.00
14057;DHT22;7103;54.300;10.180;2022-09-12T16:56:22;20.20;1.00
14057;DHT22;7103;54.300;10.180;2022-09-12T16:58:49;20.20;1.00
14057;DHT22;7103;54.300;10.180;2022-09-12T17:01:22;20.10;1.00
14057;DHT22;7103;54.300;10.180;2022-09-12T17:03:54;20.10;1.00
14057;DHT22;7103;54.300;10.180;2022-09-12T17:06:22;20.10;1.00
14057;DHT22;7103;54.300;10.180;2022-09-12T17:08:52;20.10;1.00
14057;DHT22;7103;54.300;10.180;2022-09-12T17:11:22;20.00;1.00
14057;DHT22;7103;54.300;10.180;2022-09-12T17:13:51;19.90;1.00
14057;DHT22;7103;54.300;10.180;2022-09-12T17:16:34;20.00;1.00
14057;DHT22;7103;54.300;10.180;2022-09-12T17:19:02;19.90;1.00
14057;DHT22;7103;54.300;10.180;2022-09-12T17:21:29;20.00;1.00
14057;DHT22;7103;54.300;10.180;2022-09-12T17:23:56;19.90;1.00
14057;DHT22;7103;54.300;10.180;2022-09-12T17:26:25;19.80;1.00
14057;DHT22;7103;54.300;10.180;2022-09-12T17:28:52;19.70;1.00
14057;DHT22;7103;54.300;10.180;2022-09-12T17:31:19;19.80;1.00
14057;DHT22;7103;54.300;10.180;2022-09-12T17:33:46;19.70;1.00
14057;DHT22;7103;54.300;10.180;2022-09-12T17:36:15;19.70;1.00
14057;DHT22;7103;54.300;10.180;2022-09-12T17:38:43;19.70;1.00
14057;DHT22;7103;54.300;10.180;2022-09-12T17:41:25;19.60;1.00
14057;DHT22;7103;54.300;10.180;2022-09-12T17:43:57;19.60;1.00
14057;DHT22;7103;54.300;10.180;2022-09-12T17:46:33;19.50;1.00
14057;DHT22;7103;54.300;10.180;2022-09-12T17:49:02;19.50;1.00
14057;DHT22;7103;54.300;10.180;2022-09-12T17:51:30;19.40;1.00
14057;DHT22;7103;54.300;10.180;2022-09-12T17:54:06;19.50;1.00
14057;DHT22;7103;54.300;10.180;2022-09-12T17:56:35;19.40;1.00
14057;DHT22;7103;54.300;10.180;2022-09-12T17:59:04;19.30;1.00
14057;DHT22;7103;54.300;10.180;2022-09-12T18:01:32;19.30;1.00
14057;DHT22;7103;54.300;10.180;2022-09-12T18:04:18;19.30;1.00
14057;DHT22;7103;54.300;10.180;2022-09-12T18:06:46;19.30;1.00
14057;DHT22;7103;54.300;10.180;2022-09-12T18:09:18;19.20;1.00
14057;DHT22;7103;54.300;10.180;2022-09-12T18:11:45;19.10;1.00
14057;DHT22;7103;54.300;10.180;2022-09-12T18:14:14;19.10;1.00
14057;DHT22;7103;54.300;10.180;2022-09-12T18:16:41;19.10;1.00
14057;DHT22;7103;54.300;10.180;2022-09-12T18:19:09;19.10;1.00
14057;DHT22;7103;54.300;10.180;2022-09-12T18:21:37;19.10;1.00
14057;DHT22;7103;54.300;10.180;2022-09-12T18:24:04;19.00;1.00
14057;DHT22;7103;54.300;10.180;2022-09-12T18:26:32;19.00;1.00
14057;DHT22;7103;54.300;10.180;2022-09-12T18:28:59;19.00;1.00
14057;DHT22;7103;54.300;10.180;2022-09-12T18:31:27;18.90;1.00